sensor_id;sensor_type;location;lat;lon;timestamp;pressure;altitude;pressure_sealevel;temperature;humidity
68145;BME280;55400;51.824;-0.196;2023-02-19T00:03:06;101158.67;;;9.40;73.42
68145;BME280;55400;51.824;-0.196;2023-02-19T00:07:06;101161.64;;;9.35;73.42
68145;BME280;55400;51.824;-0.196;2023-02-19T00:11:06;101162.01999999999;;;9.31;73.52
68145;BME280;55400;51.824;-0.196;2023-02-19T00:15:06;101162.01999999999;;;9.27;73.58
68145;BME280;55400;51.824;-0.196;2023-02-19T00:19:06;101163.92;;;9.24;73.52
68145;BME280;55400;51.824;-0.196;2023-02-19T00:31:07;101183.09000000001;;;9.26;73.56
68145;BME280;55400;51.824;-0.196;2023-02-19T00:35:06;101205.11;;;9.29;73.51
68145;BME280;55400;51.824;-0.196;2023-02-19T00:39:07;101207.31;;;9.30;73.51
68145;BME280;55400;51.824;-0.196;2023-02-19T00:43:06;101207.31;;;9.32;73.49
68145;BME280;55400;51.824;-0.196;2023-02-19T00:51:06;101214.29000000001;;;9.35;73.29
68145;BME280;55400;51.824;-0.196;2023-02-19T00:59:06;101226.98000000001;;;9.33;72.98
68145;BME280;55400;51.824;-0.196;2023-02-19T01:07:06;101226.93000000001;;;9.34;72.72
68145;BME280;55400;51.824;-0.196;2023-02-19T01:11:07;101219.64;;;9.33;72.72
68145;BME280;55400;51.824;-0.196;2023-02-19T01:15:06;101219.64;;;9.32;72.33
68145;BME280;55400;51.824;-0.196;2023-02-19T01:19:06;101229.88;;;9.33;72.17
68145;BME280;55400;51.824;-0.196;2023-02-19T01:31:07;101232.47;;;9.32;71.92
68145;BME280;55400;51.824;-0.196;2023-02-19T01:35:06;101240.11;;;9.29;71.84
68145;BME280;55400;51.824;-0.196;2023-02-19T01:39:06;101246.3;;;9.26;71.84
68145;BME280;55400;51.824;-0.196;2023-02-19T01:43:09;101245.64;;;9.22;71.95
68145;BME280;55400;51.824;-0.196;2023-02-19T01:47:06;101253.07;;;9.19;72.09
68145;BME280;55400;51.824;-0.196;2023-02-19T01:51:08;101246.09;;;9.16;72.09
68145;BME280;55400;51.824;-0.196;2023-02-19T01:55:06;101245.78;;;9.10;72.09
68145;BME280;55400;51.824;-0.196;2023-02-19T01:59:06;101245.78;;;9.08;71.80
68145;BME280;55400;51.824;-0.196;2023-02-19T02:07:06;101256.86;;;9.03;72.00
68145;BME280;55400;51.824;-0.196;2023-02-19T02:11:06;101256.86;;;8.98;71.47
68145;BME280;55400;51.824;-0.196;2023-02-19T02:15:06;101270.12;;;8.97;71.49
68145;BME280;55400;51.824;-0.196;2023-02-19T02:19:12;101275.8;;;8.94;71.49
68145;BME280;55400;51.824;-0.196;2023-02-19T02:23:08;101275.8;;;8.93;71.47
68145;BME280;55400;51.824;-0.196;2023-02-19T02:27:11;101279.69;;;8.89;70.86
68145;BME280;55400;51.824;-0.196;2023-02-19T02:31:06;101286.11;;;8.82;70.84
68145;BME280;55400;51.824;-0.196;2023-02-19T02:35:07;101286.11;;;8.76;70.84
68145;BME280;55400;51.824;-0.196;2023-02-19T02:39:07;101295.89;;;8.75;71.30
68145;BME280;55400;51.824;-0.196;2023-02-19T02:43:06;101295.89;;;8.78;71.30
68145;BME280;55400;51.824;-0.196;2023-02-19T02:47:06;101294.67;;;8.79;71.30
68145;BME280;55400;51.824;-0.196;2023-02-19T02:51:09;101292.3;;;8.80;71.24
68145;BME280;55400;51.824;-0.196;2023-02-19T02:59:07;101297.09;;;8.78;70.34
68145;BME280;55400;51.824;-0.196;2023-02-19T03:03:06;101301.78;;;8.75;70.34
68145;BME280;55400;51.824;-0.196;2023-02-19T03:07:06;101300.2;;;8.73;70.53
68145;BME280;55400;51.824;-0.196;2023-02-19T03:15:07;101304.81999999999;;;8.71;70.58
68145;BME280;55400;51.824;-0.196;2023-02-19T03:19:06;101315.75;;;8.69;70.61
68145;BME280;55400;51.824;-0.196;2023-02-19T03:23:06;101316.61;;;8.68;70.45
68145;BME280;55400;51.824;-0.196;2023-02-19T03:27:06;101317.03;;;8.64;70.45
68145;BME280;55400;51.824;-0.196;2023-02-19T03:31:07;101331.02;;;8.59;70.35
68145;BME280;55400;51.824;-0.196;2023-02-19T03:35:08;101330.5;;;8.58;70.19
68145;BME280;55400;51.824;-0.196;2023-02-19T03:39:07;101335.63;;;8.57;70.37
68145;BME280;55400;51.824;-0.196;2023-02-19T03:43:08;101338.93000000001;;;8.54;70.32
68145;BME280;55400;51.824;-0.196;2023-02-19T03:47:08;101347.14;;;8.49;70.32
68145;BME280;55400;51.824;-0.196;2023-02-19T03:51:09;101347.14;;;8.44;69.55
68145;BME280;55400;51.824;-0.196;2023-02-19T03:55:07;101355.40999999999;;;8.43;70.42
68145;BME280;55400;51.824;-0.196;2023-02-19T04:07:06;101370.15;;;8.46;70.59
68145;BME280;55400;51.824;-0.196;2023-02-19T04:11:06;101379.76999999999;;;8.48;70.60
68145;BME280;55400;51.824;-0.196;2023-02-19T04:15:07;101379.76999999999;;;8.49;70.21
68145;BME280;55400;51.824;-0.196;2023-02-19T04:19:07;101391.95999999999;;;8.47;70.34
68145;BME280;55400;51.824;-0.196;2023-02-19T04:23:06;101393.16;;;8.45;70.35
68145;BME280;55400;51.824;-0.196;2023-02-19T04:27:06;101392.14;;;8.44;70.42
68145;BME280;55400;51.824;-0.196;2023-02-19T04:31:07;101392.14;;;8.40;70.38
68145;BME280;55400;51.824;-0.196;2023-02-19T04:35:07;101398.33;;;8.37;70.42
68145;BME280;55400;51.824;-0.196;2023-02-19T04:39:07;101398.33;;;8.33;70.48
68145;BME280;55400;51.824;-0.196;2023-02-19T04:43:06;101401.05;;;8.29;70.53
68145;BME280;55400;51.824;-0.196;2023-02-19T04:47:07;101405.53;;;8.26;70.55
68145;BME280;55400;51.824;-0.196;2023-02-19T04:51:06;101408.48;;;8.27;70.77
68145;BME280;55400;51.824;-0.196;2023-02-19T04:55:07;101412.98000000001;;;8.28;70.71
68145;BME280;55400;51.824;-0.196;2023-02-19T04:59:06;101412.98000000001;;;8.29;70.71
68145;BME280;55400;51.824;-0.196;2023-02-19T05:03:07;101435.49;;;8.28;70.57
68145;BME280;55400;51.824;-0.196;2023-02-19T05:07:07;101444.9;;;8.30;70.57
68145;BME280;55400;51.824;-0.196;2023-02-19T05:11:07;101440.37;;;8.31;70.74
68145;BME280;55400;51.824;-0.196;2023-02-19T05:15:07;101437.67;;;8.30;70.62
68145;BME280;55400;51.824;-0.196;2023-02-19T05:19:08;101439.87;;;8.29;70.64
68145;BME280;55400;51.824;-0.196;2023-02-19T05:23:07;101449.41;;;8.25;70.64
68145;BME280;55400;51.824;-0.196;2023-02-19T05:27:07;101460.36;;;8.20;70.58
68145;BME280;55400;51.824;-0.196;2023-02-19T05:31:07;101466.04999999999;;;8.18;70.68
68145;BME280;55400;51.824;-0.196;2023-02-19T05:35:07;101466.04999999999;;;8.17;70.79
68145;BME280;55400;51.824;-0.196;2023-02-19T05:39:07;101483.87;;;8.15;70.96
68145;BME280;55400;51.824;-0.196;2023-02-19T05:47:07;101491.97;;;8.09;70.87
68145;BME280;55400;51.824;-0.196;2023-02-19T05:51:07;101494.69;;;8.10;70.87
68145;BME280;55400;51.824;-0.196;2023-02-19T05:59:09;101498.14;;;8.07;70.98
68145;BME280;55400;51.824;-0.196;2023-02-19T06:03:07;101503.49;;;8.02;70.96
68145;BME280;55400;51.824;-0.196;2023-02-19T06:07:07;101503.49;;;8.03;71.06
68145;BME280;55400;51.824;-0.196;2023-02-19T06:15:07;101519.68000000001;;;8.02;71.25
68145;BME280;55400;51.824;-0.196;2023-02-19T06:19:07;101505.89;;;8.00;71.29
68145;BME280;55400;51.824;-0.196;2023-02-19T06:23:07;101505.89;;;7.97;71.35
68145;BME280;55400;51.824;-0.196;2023-02-19T06:35:07;101518.07;;;7.96;71.51
68145;BME280;55400;51.824;-0.196;2023-02-19T06:39:08;101529.33;;;7.97;71.50
68145;BME280;55400;51.824;-0.196;2023-02-19T06:43:07;101528.02;;;7.94;71.46
68145;BME280;55400;51.824;-0.196;2023-02-19T06:47:07;101529.21;;;7.92;71.54
68145;BME280;55400;51.824;-0.196;2023-02-19T06:51:08;101529.21;;;7.89;71.66
68145;BME280;55400;51.824;-0.196;2023-02-19T06:55:07;101551.35;;;7.85;71.66
68145;BME280;55400;51.824;-0.196;2023-02-19T06:59:08;101551.35;;;7.86;71.81
68145;BME280;55400;51.824;-0.196;2023-02-19T07:03:07;101561.65999999999;;;7.82;71.74
68145;BME280;55400;51.824;-0.196;2023-02-19T07:07:09;101578.19;;;7.79;71.77
68145;BME280;55400;51.824;-0.196;2023-02-19T07:15:07;101592.7;;;7.80;71.93
68145;BME280;55400;51.824;-0.196;2023-02-19T07:19:08;101594.2;;;7.79;71.85
68145;BME280;55400;51.824;-0.196;2023-02-19T07:23:07;101604.45999999999;;;7.81;71.67
68145;BME280;55400;51.824;-0.196;2023-02-19T07:31:07;101617.38;;;7.79;71.41
68145;BME280;55400;51.824;-0.196;2023-02-19T07:35:07;101617.38;;;7.72;71.41
68145;BME280;55400;51.824;-0.196;2023-02-19T07:39:09;101618.84;;;7.70;71.24
68145;BME280;55400;51.824;-0.196;2023-02-19T07:47:07;101647.81;;;7.66;71.37
68145;BME280;55400;51.824;-0.196;2023-02-19T07:51:09;101652.26;;;7.61;71.03
68145;BME280;55400;51.824;-0.196;2023-02-19T07:55:07;101650.09;;;7.58;71.32
68145;BME280;55400;51.824;-0.196;2023-02-19T07:59:07;101670.23000000001;;;7.55;70.91
68145;BME280;55400;51.824;-0.196;2023-02-19T08:03:07;101670.23000000001;;;7.56;70.91
68145;BME280;55400;51.824;-0.196;2023-02-19T08:07:07;101684.38;;;7.57;70.91
68145;BME280;55400;51.824;-0.196;2023-02-19T08:11:08;101715.20000000001;;;7.59;71.08
68145;BME280;55400;51.824;-0.196;2023-02-19T08:15:07;101730.97;;;7.56;70.51
68145;BME280;55400;51.824;-0.196;2023-02-19T08:19:07;101719.51000000001;;;7.57;70.51
68145;BME280;55400;51.824;-0.196;2023-02-19T08:23:07;101713.81999999999;;;7.58;70.39
68145;BME280;55400;51.824;-0.196;2023-02-19T08:27:07;101713.81999999999;;;7.60;70.39
68145;BME280;55400;51.824;-0.196;2023-02-19T08:31:08;101721.01;;;7.59;70.19
68145;BME280;55400;51.824;-0.196;2023-02-19T08:39:07;101700.95;;;7.57;70.00
68145;BME280;55400;51.824;-0.196;2023-02-19T08:47:07;101716.99;;;7.55;70.04
68145;BME280;55400;51.824;-0.196;2023-02-19T08:51:08;101716.99;;;7.54;69.92
68145;BME280;55400;51.824;-0.196;2023-02-19T08:55:07;101707.89;;;7.53;69.64
68145;BME280;55400;51.824;-0.196;2023-02-19T08:59:07;101718.76999999999;;;7.56;69.99
68145;BME280;55400;51.824;-0.196;2023-02-19T09:07:08;101717.16;;;7.58;69.36
68145;BME280;55400;51.824;-0.196;2023-02-19T09:11:07;101723.1;;;7.62;69.61
68145;BME280;55400;51.824;-0.196;2023-02-19T09:15:07;101724.97;;;7.63;69.61
68145;BME280;55400;51.824;-0.196;2023-02-19T09:19:07;101752.0;;;7.67;68.98
68145;BME280;55400;51.824;-0.196;2023-02-19T09:23:07;101776.0;;;7.69;68.98
68145;BME280;55400;51.824;-0.196;2023-02-19T09:27:07;101772.83;;;7.72;68.74
68145;BME280;55400;51.824;-0.196;2023-02-19T09:31:08;101782.89;;;7.75;68.74
68145;BME280;55400;51.824;-0.196;2023-02-19T09:35:07;101788.92;;;7.81;68.79
68145;BME280;55400;51.824;-0.196;2023-02-19T09:39:08;101790.09;;;7.86;68.10
68145;BME280;55400;51.824;-0.196;2023-02-19T09:43:07;101791.6;;;7.89;68.10
68145;BME280;55400;51.824;-0.196;2023-02-19T09:47:08;101783.5;;;7.91;68.34
68145;BME280;55400;51.824;-0.196;2023-02-19T09:51:07;101782.59000000001;;;7.94;68.30
68145;BME280;55400;51.824;-0.196;2023-02-19T09:55:12;101781.11;;;7.95;67.61
68145;BME280;55400;51.824;-0.196;2023-02-19T09:59:09;101773.87999999999;;;7.98;67.16
68145;BME280;55400;51.824;-0.196;2023-02-19T10:03:10;101756.0;;;8.02;67.90
68145;BME280;55400;51.824;-0.196;2023-02-19T10:07:09;101756.0;;;8.09;67.07
68145;BME280;55400;51.824;-0.196;2023-02-19T10:11:07;101792.89;;;8.17;67.41
68145;BME280;55400;51.824;-0.196;2023-02-19T10:15:09;101794.79;;;8.22;67.41
68145;BME280;55400;51.824;-0.196;2023-02-19T10:19:08;101792.14;;;8.27;66.25
68145;BME280;55400;51.824;-0.196;2023-02-19T10:23:09;101803.85;;;8.31;66.25
68145;BME280;55400;51.824;-0.196;2023-02-19T10:27:09;101806.44;;;8.38;66.64
68145;BME280;55400;51.824;-0.196;2023-02-19T10:31:10;101806.44;;;8.42;66.64
68145;BME280;55400;51.824;-0.196;2023-02-19T10:35:09;101823.49;;;8.45;66.43
68145;BME280;55400;51.824;-0.196;2023-02-19T10:39:16;101823.49;;;8.48;66.45
68145;BME280;55400;51.824;-0.196;2023-02-19T10:43:07;101822.6;;;8.49;66.35
68145;BME280;55400;51.824;-0.196;2023-02-19T10:47:07;101815.58;;;8.53;65.97
68145;BME280;55400;51.824;-0.196;2023-02-19T10:51:08;101811.68000000001;;;8.55;66.28
68145;BME280;55400;51.824;-0.196;2023-02-19T10:55:14;101811.68000000001;;;8.59;65.70
68145;BME280;55400;51.824;-0.196;2023-02-19T10:59:13;101823.17;;;8.64;66.32
68145;BME280;55400;51.824;-0.196;2023-02-19T11:03:16;101823.17;;;8.70;66.32
68145;BME280;55400;51.824;-0.196;2023-02-19T11:07:08;101835.82;;;8.75;65.67
68145;BME280;55400;51.824;-0.196;2023-02-19T11:11:07;101835.82;;;8.81;65.57
68145;BME280;55400;51.824;-0.196;2023-02-19T11:15:16;101837.25;;;8.87;65.21
68145;BME280;55400;51.824;-0.196;2023-02-19T11:23:10;101816.62;;;8.96;65.45
68145;BME280;55400;51.824;-0.196;2023-02-19T11:31:12;101816.85;;;8.98;64.04
68145;BME280;55400;51.824;-0.196;2023-02-19T11:35:16;101816.85;;;9.04;64.04
68145;BME280;55400;51.824;-0.196;2023-02-19T11:43:11;101815.77;;;9.13;63.14
68145;BME280;55400;51.824;-0.196;2023-02-19T11:47:18;101819.03;;;9.19;63.74
68145;BME280;55400;51.824;-0.196;2023-02-19T11:51:12;101819.03;;;9.29;63.60
68145;BME280;55400;51.824;-0.196;2023-02-19T11:55:09;101816.13;;;9.34;62.71
68145;BME280;55400;51.824;-0.196;2023-02-19T11:59:09;101821.95;;;9.43;62.10
68145;BME280;55400;51.824;-0.196;2023-02-19T12:03:13;101825.66;;;9.52;62.06
68145;BME280;55400;51.824;-0.196;2023-02-19T12:07:10;101803.33;;;9.57;61.61
68145;BME280;55400;51.824;-0.196;2023-02-19T12:11:16;101801.09999999999;;;9.68;61.45
68145;BME280;55400;51.824;-0.196;2023-02-19T12:15:12;101789.73;;;9.72;59.71
68145;BME280;55400;51.824;-0.196;2023-02-19T12:19:11;101789.73;;;9.75;59.71
68145;BME280;55400;51.824;-0.196;2023-02-19T12:23:20;101796.14;;;9.76;60.30
68145;BME280;55400;51.824;-0.196;2023-02-19T12:31:19;101797.38;;;9.73;60.13
68145;BME280;55400;51.824;-0.196;2023-02-19T12:35:14;101801.22;;;9.74;59.41
68145;BME280;55400;51.824;-0.196;2023-02-19T12:39:11;101797.2;;;9.73;60.14
68145;BME280;55400;51.824;-0.196;2023-02-19T12:43:11;101793.57;;;9.77;60.32
68145;BME280;55400;51.824;-0.196;2023-02-19T12:47:08;101793.57;;;9.82;60.32
68145;BME280;55400;51.824;-0.196;2023-02-19T12:51:09;101784.73;;;9.84;60.42
68145;BME280;55400;51.824;-0.196;2023-02-19T12:55:10;101779.31999999999;;;9.85;60.35
68145;BME280;55400;51.824;-0.196;2023-02-19T12:59:09;101779.9;;;9.90;60.94
68145;BME280;55400;51.824;-0.196;2023-02-19T13:03:10;101779.9;;;9.96;60.72
68145;BME280;55400;51.824;-0.196;2023-02-19T13:07:08;101769.04;;;10.02;60.90
68145;BME280;55400;51.824;-0.196;2023-02-19T13:11:09;101759.03;;;10.03;60.42
68145;BME280;55400;51.824;-0.196;2023-02-19T13:15:13;101763.2;;;10.06;59.67
68145;BME280;55400;51.824;-0.196;2023-02-19T13:19:08;101763.2;;;10.04;61.03
68145;BME280;55400;51.824;-0.196;2023-02-19T13:23:10;101757.9;;;9.97;60.96
68145;BME280;55400;51.824;-0.196;2023-02-19T13:27:15;101748.39;;;9.92;60.04
68145;BME280;55400;51.824;-0.196;2023-02-19T13:31:17;101753.39;;;9.97;61.31
68145;BME280;55400;51.824;-0.196;2023-02-19T13:35:15;101753.39;;;10.07;61.60
68145;BME280;55400;51.824;-0.196;2023-02-19T13:39:11;101757.45;;;10.17;61.63
68145;BME280;55400;51.824;-0.196;2023-02-19T13:43:19;101757.45;;;10.23;61.14
68145;BME280;55400;51.824;-0.196;2023-02-19T13:59:12;101746.88;;;10.44;60.21
68145;BME280;55400;51.824;-0.196;2023-02-19T14:11:08;101726.58;;;10.62;60.30
68145;BME280;55400;51.824;-0.196;2023-02-19T14:19:11;101723.83;;;10.68;59.87
68145;BME280;55400;51.824;-0.196;2023-02-19T14:23:13;101711.39;;;10.70;59.72
68145;BME280;55400;51.824;-0.196;2023-02-19T14:27:08;101711.39;;;10.71;59.72
68145;BME280;55400;51.824;-0.196;2023-02-19T14:31:09;101718.9;;;10.77;59.71
68145;BME280;55400;51.824;-0.196;2023-02-19T14:35:16;101732.06;;;10.83;60.20
68145;BME280;55400;51.824;-0.196;2023-02-19T14:39:10;101734.13;;;10.88;60.03
68145;BME280;55400;51.824;-0.196;2023-02-19T14:43:08;101746.15;;;10.93;60.24
68145;BME280;55400;51.824;-0.196;2023-02-19T14:47:12;101731.25;;;10.98;59.22
68145;BME280;55400;51.824;-0.196;2023-02-19T14:51:11;101731.25;;;11.05;60.32
68145;BME280;55400;51.824;-0.196;2023-02-19T14:55:09;101725.41;;;11.09;60.26
68145;BME280;55400;51.824;-0.196;2023-02-19T15:07:09;101725.05;;;11.21;59.98
68145;BME280;55400;51.824;-0.196;2023-02-19T15:11:09;101712.48000000001;;;11.24;60.19
68145;BME280;55400;51.824;-0.196;2023-02-19T15:15:14;101709.22;;;11.27;59.39
68145;BME280;55400;51.824;-0.196;2023-02-19T15:19:08;101709.22;;;11.33;60.05
68145;BME280;55400;51.824;-0.196;2023-02-19T15:23:10;101693.78;;;11.42;59.89
68145;BME280;55400;51.824;-0.196;2023-02-19T15:27:10;101692.31;;;11.54;60.03
68145;BME280;55400;51.824;-0.196;2023-02-19T15:31:12;101688.3;;;11.64;59.32
68145;BME280;55400;51.824;-0.196;2023-02-19T15:35:16;101685.72;;;11.72;59.32
68145;BME280;55400;51.824;-0.196;2023-02-19T15:39:11;101684.48;;;11.79;59.26
68145;BME280;55400;51.824;-0.196;2023-02-19T15:43:09;101671.34;;;11.83;57.97
68145;BME280;55400;51.824;-0.196;2023-02-19T15:47:11;101671.34;;;11.88;58.27
68145;BME280;55400;51.824;-0.196;2023-02-19T15:51:10;101658.2;;;11.93;58.15
68145;BME280;55400;51.824;-0.196;2023-02-19T15:55:12;101658.2;;;12.07;58.40
68145;BME280;55400;51.824;-0.196;2023-02-19T15:59:12;101643.5;;;12.18;58.50
68145;BME280;55400;51.824;-0.196;2023-02-19T16:03:12;101641.72;;;12.28;57.65
68145;BME280;55400;51.824;-0.196;2023-02-19T16:15:12;101624.23999999999;;;12.63;57.48
68145;BME280;55400;51.824;-0.196;2023-02-19T16:19:08;101632.51000000001;;;12.73;56.47
68145;BME280;55400;51.824;-0.196;2023-02-19T16:23:09;101621.7;;;12.78;56.49
68145;BME280;55400;51.824;-0.196;2023-02-19T16:27:08;101620.19;;;12.79;56.43
68145;BME280;55400;51.824;-0.196;2023-02-19T16:31:09;101610.89;;;12.76;55.59
68145;BME280;55400;51.824;-0.196;2023-02-19T16:39:13;101604.17;;;12.94;55.88
68145;BME280;55400;51.824;-0.196;2023-02-19T16:47:13;101601.11;;;13.05;55.19
68145;BME280;55400;51.824;-0.196;2023-02-19T16:51:10;101600.89;;;13.08;55.27
68145;BME280;55400;51.824;-0.196;2023-02-19T16:55:10;101604.88;;;13.09;55.28
68145;BME280;55400;51.824;-0.196;2023-02-19T16:59:08;101612.03;;;13.05;55.24
68145;BME280;55400;51.824;-0.196;2023-02-19T17:03:09;101612.03;;;12.95;55.30
68145;BME280;55400;51.824;-0.196;2023-02-19T17:07:10;101613.17;;;12.67;55.59
68145;BME280;55400;51.824;-0.196;2023-02-19T17:11:10;101615.79000000001;;;12.35;56.05
68145;BME280;55400;51.824;-0.196;2023-02-19T17:15:09;101619.37000000001;;;12.07;55.76
68145;BME280;55400;51.824;-0.196;2023-02-19T17:19:09;101621.68000000001;;;11.84;56.97
68145;BME280;55400;51.824;-0.196;2023-02-19T17:23:09;101621.68000000001;;;11.65;57.28
68145;BME280;55400;51.824;-0.196;2023-02-19T17:27:09;101613.59;;;11.52;57.51
68145;BME280;55400;51.824;-0.196;2023-02-19T17:31:09;101612.42;;;11.37;57.83
68145;BME280;55400;51.824;-0.196;2023-02-19T17:35:09;101606.41;;;11.22;57.52
68145;BME280;55400;51.824;-0.196;2023-02-19T17:39:09;101611.56;;;11.10;58.56
68145;BME280;55400;51.824;-0.196;2023-02-19T17:43:09;101618.61;;;11.02;58.92
68145;BME280;55400;51.824;-0.196;2023-02-19T17:47:09;101621.70999999999;;;10.89;58.98
68145;BME280;55400;51.824;-0.196;2023-02-19T17:51:09;101621.70999999999;;;10.80;59.38
68145;BME280;55400;51.824;-0.196;2023-02-19T17:55:10;101633.22;;;10.71;59.80
68145;BME280;55400;51.824;-0.196;2023-02-19T17:59:09;101631.58;;;10.63;60.10
68145;BME280;55400;51.824;-0.196;2023-02-19T18:03:09;101626.79000000001;;;10.57;60.26
68145;BME280;55400;51.824;-0.196;2023-02-19T18:07:09;101625.08;;;10.50;60.52
68145;BME280;55400;51.824;-0.196;2023-02-19T18:11:09;101625.08;;;10.44;60.45
68145;BME280;55400;51.824;-0.196;2023-02-19T18:15:09;101605.67;;;10.37;60.81
68145;BME280;55400;51.824;-0.196;2023-02-19T18:19:09;101605.67;;;10.32;60.84
68145;BME280;55400;51.824;-0.196;2023-02-19T18:23:09;101598.95;;;10.28;61.13
68145;BME280;55400;51.824;-0.196;2023-02-19T18:27:09;101593.81;;;10.24;61.33
68145;BME280;55400;51.824;-0.196;2023-02-19T18:31:09;101593.81;;;10.19;61.49
68145;BME280;55400;51.824;-0.196;2023-02-19T18:35:09;101592.97;;;10.13;61.69
68145;BME280;55400;51.824;-0.196;2023-02-19T18:39:09;101593.67;;;10.08;61.96
68145;BME280;55400;51.824;-0.196;2023-02-19T18:43:09;101613.01999999999;;;10.00;61.96
68145;BME280;55400;51.824;-0.196;2023-02-19T18:47:09;101615.54;;;9.93;61.94
68145;BME280;55400;51.824;-0.196;2023-02-19T18:51:09;101626.58;;;9.88;62.14
68145;BME280;55400;51.824;-0.196;2023-02-19T18:55:09;101643.4;;;9.82;62.14
68145;BME280;55400;51.824;-0.196;2023-02-19T18:59:09;101639.51;;;9.75;62.34
68145;BME280;55400;51.824;-0.196;2023-02-19T19:03:09;101648.14;;;9.68;62.47
68145;BME280;55400;51.824;-0.196;2023-02-19T19:07:09;101648.14;;;9.64;62.74
68145;BME280;55400;51.824;-0.196;2023-02-19T19:11:09;101660.38;;;9.55;63.15
68145;BME280;55400;51.824;-0.196;2023-02-19T19:15:09;101649.49;;;9.46;63.64
68145;BME280;55400;51.824;-0.196;2023-02-19T19:19:09;101641.88;;;9.42;63.86
68145;BME280;55400;51.824;-0.196;2023-02-19T19:23:09;101641.88;;;9.37;63.99
68145;BME280;55400;51.824;-0.196;2023-02-19T19:27:09;101637.81;;;9.38;64.14
68145;BME280;55400;51.824;-0.196;2023-02-19T19:31:09;101629.3;;;9.43;64.23
68145;BME280;55400;51.824;-0.196;2023-02-19T19:35:09;101629.3;;;9.39;64.13
68145;BME280;55400;51.824;-0.196;2023-02-19T19:39:09;101639.21;;;9.40;64.25
68145;BME280;55400;51.824;-0.196;2023-02-19T19:43:09;101637.95;;;9.42;64.26
68145;BME280;55400;51.824;-0.196;2023-02-19T19:47:09;101629.74;;;9.37;64.66
68145;BME280;55400;51.824;-0.196;2023-02-19T19:51:09;101618.64;;;9.23;64.66
68145;BME280;55400;51.824;-0.196;2023-02-19T19:55:09;101631.17;;;9.11;65.18
68145;BME280;55400;51.824;-0.196;2023-02-19T19:59:09;101640.73;;;9.04;65.66
68145;BME280;55400;51.824;-0.196;2023-02-19T20:03:09;101640.73;;;8.99;65.79
68145;BME280;55400;51.824;-0.196;2023-02-19T20:07:09;101646.73;;;8.95;66.05
68145;BME280;55400;51.824;-0.196;2023-02-19T20:11:09;101646.73;;;8.88;66.26
68145;BME280;55400;51.824;-0.196;2023-02-19T20:15:09;101631.88;;;8.77;66.81
68145;BME280;55400;51.824;-0.196;2023-02-19T20:19:09;101628.68999999999;;;8.70;67.25
68145;BME280;55400;51.824;-0.196;2023-02-19T20:27:09;101625.33;;;8.62;67.49
68145;BME280;55400;51.824;-0.196;2023-02-19T20:31:09;101610.88;;;8.54;68.27
68145;BME280;55400;51.824;-0.196;2023-02-19T20:35:09;101611.87999999999;;;8.45;68.27
68145;BME280;55400;51.824;-0.196;2023-02-19T20:39:09;101622.26000000001;;;8.39;68.69
68145;BME280;55400;51.824;-0.196;2023-02-19T20:43:09;101615.91;;;8.41;68.74
68145;BME280;55400;51.824;-0.196;2023-02-19T20:47:09;101615.91;;;8.43;68.70
68145;BME280;55400;51.824;-0.196;2023-02-19T20:51:09;101610.46;;;8.47;68.55
68145;BME280;55400;51.824;-0.196;2023-02-19T20:55:09;101607.28;;;8.45;68.60
68145;BME280;55400;51.824;-0.196;2023-02-19T20:59:10;101608.72;;;8.43;68.70
68145;BME280;55400;51.824;-0.196;2023-02-19T21:03:09;101604.35;;;8.37;68.82
68145;BME280;55400;51.824;-0.196;2023-02-19T21:07:09;101609.87;;;8.26;69.37
68145;BME280;55400;51.824;-0.196;2023-02-19T21:11:09;101623.33;;;8.22;69.62
68145;BME280;55400;51.824;-0.196;2023-02-19T21:15:09;101619.33;;;8.20;69.62
68145;BME280;55400;51.824;-0.196;2023-02-19T21:19:09;101618.7;;;8.19;69.43
68145;BME280;55400;51.824;-0.196;2023-02-19T21:23:09;101610.58;;;8.16;69.59
68145;BME280;55400;51.824;-0.196;2023-02-19T21:27:09;101618.2;;;8.15;69.59
68145;BME280;55400;51.824;-0.196;2023-02-19T21:31:09;101616.66;;;8.14;69.54
68145;BME280;55400;51.824;-0.196;2023-02-19T21:39:11;101619.74;;;8.13;69.44
68145;BME280;55400;51.824;-0.196;2023-02-19T21:43:09;101622.66;;;8.12;69.40
68145;BME280;55400;51.824;-0.196;2023-02-19T21:47:09;101633.59;;;8.07;69.38
68145;BME280;55400;51.824;-0.196;2023-02-19T21:55:09;101636.7;;;7.99;69.37
68145;BME280;55400;51.824;-0.196;2023-02-19T21:59:09;101640.56;;;7.95;69.57
68145;BME280;55400;51.824;-0.196;2023-02-19T22:03:09;101647.41;;;7.89;69.57
68145;BME280;55400;51.824;-0.196;2023-02-19T22:07:09;101644.55;;;7.88;69.63
68145;BME280;55400;51.824;-0.196;2023-02-19T22:11:10;101644.55;;;7.85;69.67
68145;BME280;55400;51.824;-0.196;2023-02-19T22:15:09;101642.4;;;7.81;69.70
68145;BME280;55400;51.824;-0.196;2023-02-19T22:19:10;101642.4;;;7.77;69.79
68145;BME280;55400;51.824;-0.196;2023-02-19T22:23:09;101642.04;;;7.72;69.81
68145;BME280;55400;51.824;-0.196;2023-02-19T22:27:09;101642.04;;;7.69;69.83
68145;BME280;55400;51.824;-0.196;2023-02-19T22:31:09;101647.08;;;7.67;69.86
68145;BME280;55400;51.824;-0.196;2023-02-19T22:35:09;101644.93;;;7.63;69.83
68145;BME280;55400;51.824;-0.196;2023-02-19T22:39:14;101644.28;;;7.50;69.90
68145;BME280;55400;51.824;-0.196;2023-02-19T22:43:09;101647.91;;;7.37;70.21
68145;BME280;55400;51.824;-0.196;2023-02-19T22:47:09;101644.48;;;7.35;70.40
68145;BME280;55400;51.824;-0.196;2023-02-19T22:51:10;101644.48;;;7.29;70.40
68145;BME280;55400;51.824;-0.196;2023-02-19T22:55:10;101637.41;;;7.22;70.57
68145;BME280;55400;51.824;-0.196;2023-02-19T22:59:10;101627.47;;;7.16;70.77
68145;BME280;55400;51.824;-0.196;2023-02-19T23:03:09;101634.05;;;7.08;70.94
68145;BME280;55400;51.824;-0.196;2023-02-19T23:07:10;101624.34;;;7.03;71.27
68145;BME280;55400;51.824;-0.196;2023-02-19T23:15:10;101619.42;;;7.05;71.27
68145;BME280;55400;51.824;-0.196;2023-02-19T23:19:11;101614.54;;;7.04;71.33
68145;BME280;55400;51.824;-0.196;2023-02-19T23:23:09;101611.28;;;7.00;71.39